sensor_id;sensor_type;location;lat;lon;timestamp;temperature;humidity
19567;DHT22;9930;49.240;8.548;2022-12-07T00:01:48;7.90;84.90
19567;DHT22;9930;49.240;8.548;2022-12-07T00:04:18;7.90;84.90
19567;DHT22;9930;49.240;8.548;2022-12-07T00:06:50;7.90;84.90
19567;DHT22;9930;49.240;8.548;2022-12-07T00:09:18;7.80;84.80
19567;DHT22;9930;49.240;8.548;2022-12-07T00:11:49;7.80;84.80
19567;DHT22;9930;49.240;8.548;2022-12-07T00:14:18;7.80;84.80
19567;DHT22;9930;49.240;8.548;2022-12-07T00:16:51;7.90;84.80
19567;DHT22;9930;49.240;8.548;2022-12-07T00:19:20;7.80;84.80
19567;DHT22;9930;49.240;8.548;2022-12-07T00:21:46;7.80;84.80
19567;DHT22;9930;49.240;8.548;2022-12-07T00:24:12;7.80;84.70
19567;DHT22;9930;49.240;8.548;2022-12-07T00:26:41;7.80;84.80
19567;DHT22;9930;49.240;8.548;2022-12-07T00:29:16;7.70;84.80
19567;DHT22;9930;49.240;8.548;2022-12-07T00:31:46;7.70;84.80
19567;DHT22;9930;49.240;8.548;2022-12-07T00:34:14;7.70;84.80
19567;DHT22;9930;49.240;8.548;2022-12-07T00:36:46;7.70;84.90
19567;DHT22;9930;49.240;8.548;2022-12-07T00:39:18;7.60;84.80
19567;DHT22;9930;49.240;8.548;2022-12-07T00:41:46;7.60;84.90
19567;DHT22;9930;49.240;8.548;2022-12-07T00:44:15;7.60;84.90
19567;DHT22;9930;49.240;8.548;2022-12-07T00:46:41;7.60;84.90
19567;DHT22;9930;49.240;8.548;2022-12-07T00:49:13;7.60;85.00
19567;DHT22;9930;49.240;8.548;2022-12-07T00:51:41;7.60;85.10
19567;DHT22;9930;49.240;8.548;2022-12-07T00:54:07;7.50;85.10
19567;DHT22;9930;49.240;8.548;2022-12-07T00:56:37;7.50;85.10
19567;DHT22;9930;49.240;8.548;2022-12-07T00:59:03;7.50;85.30
19567;DHT22;9930;49.240;8.548;2022-12-07T01:01:34;7.50;85.30
19567;DHT22;9930;49.240;8.548;2022-12-07T01:04:01;7.50;85.30
19567;DHT22;9930;49.240;8.548;2022-12-07T01:06:30;7.50;85.30
19567;DHT22;9930;49.240;8.548;2022-12-07T01:08:59;7.50;85.30
19567;DHT22;9930;49.240;8.548;2022-12-07T01:11:29;7.50;85.30
19567;DHT22;9930;49.240;8.548;2022-12-07T01:14:00;7.50;85.30
19567;DHT22;9930;49.240;8.548;2022-12-07T01:16:31;7.50;85.30
19567;DHT22;9930;49.240;8.548;2022-12-07T01:18:59;7.50;85.30
19567;DHT22;9930;49.240;8.548;2022-12-07T01:21:30;7.40;85.30
19567;DHT22;9930;49.240;8.548;2022-12-07T01:24:00;7.50;85.40
19567;DHT22;9930;49.240;8.548;2022-12-07T01:26:27;7.40;85.40
19567;DHT22;9930;49.240;8.548;2022-12-07T01:28:53;7.40;85.50
19567;DHT22;9930;49.240;8.548;2022-12-07T01:31:22;7.40;85.50
19567;DHT22;9930;49.240;8.548;2022-12-07T01:33:57;7.40;85.60
19567;DHT22;9930;49.240;8.548;2022-12-07T01:36:32;7.40;85.60
19567;DHT22;9930;49.240;8.548;2022-12-07T01:39:04;7.40;85.60
19567;DHT22;9930;49.240;8.548;2022-12-07T01:41:35;7.40;85.60
19567;DHT22;9930;49.240;8.548;2022-12-07T01:44:22;7.40;85.60
19567;DHT22;9930;49.240;8.548;2022-12-07T01:47:00;7.40;85.80
19567;DHT22;9930;49.240;8.548;2022-12-07T01:49:45;7.40;85.80
19567;DHT22;9930;49.240;8.548;2022-12-07T01:52:25;7.40;85.80
19567;DHT22;9930;49.240;8.548;2022-12-07T01:54:58;7.40;85.80
19567;DHT22;9930;49.240;8.548;2022-12-07T01:57:31;7.40;85.80
19567;DHT22;9930;49.240;8.548;2022-12-07T01:59:59;7.40;85.80
19567;DHT22;9930;49.240;8.548;2022-12-07T02:02:29;7.40;85.80
19567;DHT22;9930;49.240;8.548;2022-12-07T02:05:00;7.40;85.90
19567;DHT22;9930;49.240;8.548;2022-12-07T02:07:28;7.40;85.90
19567;DHT22;9930;49.240;8.548;2022-12-07T02:09:57;7.40;85.90
19567;DHT22;9930;49.240;8.548;2022-12-07T02:12:40;7.40;85.90
19567;DHT22;9930;49.240;8.548;2022-12-07T02:15:06;7.40;85.90
19567;DHT22;9930;49.240;8.548;2022-12-07T02:17:48;7.40;85.90
19567;DHT22;9930;49.240;8.548;2022-12-07T02:20:33;7.40;85.90
19567;DHT22;9930;49.240;8.548;2022-12-07T02:23:31;7.40;86.00
19567;DHT22;9930;49.240;8.548;2022-12-07T02:29:40;7.40;86.10
19567;DHT22;9930;49.240;8.548;2022-12-07T02:35:33;7.40;86.00
19567;DHT22;9930;49.240;8.548;2022-12-07T02:41:02;7.40;86.10
19567;DHT22;9930;49.240;8.548;2022-12-07T02:43:42;7.40;86.20
19567;DHT22;9930;49.240;8.548;2022-12-07T02:46:15;7.40;86.10
19567;DHT22;9930;49.240;8.548;2022-12-07T02:49:20;7.40;86.00
19567;DHT22;9930;49.240;8.548;2022-12-07T02:51:52;7.40;85.90
19567;DHT22;9930;49.240;8.548;2022-12-07T02:54:23;7.40;85.80
19567;DHT22;9930;49.240;8.548;2022-12-07T02:56:59;7.30;85.70
19567;DHT22;9930;49.240;8.548;2022-12-07T03:03:05;7.30;85.70
19567;DHT22;9930;49.240;8.548;2022-12-07T03:08:00;7.30;85.70
19567;DHT22;9930;49.240;8.548;2022-12-07T03:13:58;7.20;85.70
19567;DHT22;9930;49.240;8.548;2022-12-07T03:16:33;7.20;85.60
19567;DHT22;9930;49.240;8.548;2022-12-07T03:19:11;7.20;85.60
19567;DHT22;9930;49.240;8.548;2022-12-07T03:21:42;7.20;85.70
19567;DHT22;9930;49.240;8.548;2022-12-07T03:24:22;7.10;85.70
19567;DHT22;9930;49.240;8.548;2022-12-07T03:27:06;7.10;85.90
19567;DHT22;9930;49.240;8.548;2022-12-07T03:29:43;7.10;85.90
19567;DHT22;9930;49.240;8.548;2022-12-07T03:32:28;7.10;86.00
19567;DHT22;9930;49.240;8.548;2022-12-07T03:35:37;7.10;86.10
19567;DHT22;9930;49.240;8.548;2022-12-07T03:38:25;7.10;86.40
19567;DHT22;9930;49.240;8.548;2022-12-07T03:41:31;7.10;86.30
19567;DHT22;9930;49.240;8.548;2022-12-07T03:43:59;7.10;86.40
19567;DHT22;9930;49.240;8.548;2022-12-07T03:46:59;7.10;86.20
19567;DHT22;9930;49.240;8.548;2022-12-07T03:50:10;7.10;86.30
19567;DHT22;9930;49.240;8.548;2022-12-07T03:53:14;7.10;86.30
19567;DHT22;9930;49.240;8.548;2022-12-07T03:55:51;7.10;86.50
19567;DHT22;9930;49.240;8.548;2022-12-07T03:58:21;7.10;86.20
19567;DHT22;9930;49.240;8.548;2022-12-07T04:00:52;7.10;86.20
19567;DHT22;9930;49.240;8.548;2022-12-07T04:03:21;7.10;86.90
19567;DHT22;9930;49.240;8.548;2022-12-07T04:05:54;7.10;86.20
19567;DHT22;9930;49.240;8.548;2022-12-07T04:08:24;7.10;86.20
19567;DHT22;9930;49.240;8.548;2022-12-07T04:10:51;7.10;86.30
19567;DHT22;9930;49.240;8.548;2022-12-07T04:13:20;7.10;86.20
19567;DHT22;9930;49.240;8.548;2022-12-07T04:15:47;7.10;86.20
19567;DHT22;9930;49.240;8.548;2022-12-07T04:18:22;7.20;86.20
19567;DHT22;9930;49.240;8.548;2022-12-07T04:20:51;7.10;86.30
19567;DHT22;9930;49.240;8.548;2022-12-07T04:23:21;7.10;86.30
19567;DHT22;9930;49.240;8.548;2022-12-07T04:25:51;7.10;86.20
19567;DHT22;9930;49.240;8.548;2022-12-07T04:28:23;7.10;86.30
19567;DHT22;9930;49.240;8.548;2022-12-07T04:30:51;7.10;86.30
19567;DHT22;9930;49.240;8.548;2022-12-07T04:33:21;7.10;86.20
19567;DHT22;9930;49.240;8.548;2022-12-07T04:35:51;7.10;86.20
19567;DHT22;9930;49.240;8.548;2022-12-07T04:38:20;7.20;86.30
19567;DHT22;9930;49.240;8.548;2022-12-07T04:40:51;7.20;86.30
19567;DHT22;9930;49.240;8.548;2022-12-07T04:43:20;7.20;86.20
19567;DHT22;9930;49.240;8.548;2022-12-07T04:45:51;7.20;86.20
19567;DHT22;9930;49.240;8.548;2022-12-07T04:48:20;7.20;86.20
19567;DHT22;9930;49.240;8.548;2022-12-07T04:50:49;7.20;86.20
19567;DHT22;9930;49.240;8.548;2022-12-07T04:53:18;7.20;86.20
19567;DHT22;9930;49.240;8.548;2022-12-07T04:55:47;7.20;86.10
19567;DHT22;9930;49.240;8.548;2022-12-07T04:58:18;7.20;86.00
19567;DHT22;9930;49.240;8.548;2022-12-07T05:00:44;7.20;86.20
19567;DHT22;9930;49.240;8.548;2022-12-07T05:03:10;7.20;86.20
19567;DHT22;9930;49.240;8.548;2022-12-07T05:05:35;7.20;86.10
19567;DHT22;9930;49.240;8.548;2022-12-07T05:08:01;7.20;86.10
19567;DHT22;9930;49.240;8.548;2022-12-07T05:10:27;7.20;86.10
19567;DHT22;9930;49.240;8.548;2022-12-07T05:12:52;7.20;86.10
19567;DHT22;9930;49.240;8.548;2022-12-07T05:15:21;7.20;86.00
19567;DHT22;9930;49.240;8.548;2022-12-07T05:17:47;7.20;86.00
19567;DHT22;9930;49.240;8.548;2022-12-07T05:20:23;7.20;86.10
19567;DHT22;9930;49.240;8.548;2022-12-07T05:22:51;7.20;86.10
19567;DHT22;9930;49.240;8.548;2022-12-07T05:25:21;7.20;86.00
19567;DHT22;9930;49.240;8.548;2022-12-07T05:27:55;7.20;86.00
19567;DHT22;9930;49.240;8.548;2022-12-07T05:30:24;7.20;86.00
19567;DHT22;9930;49.240;8.548;2022-12-07T05:32:51;7.20;86.00
19567;DHT22;9930;49.240;8.548;2022-12-07T05:35:21;7.20;86.00
19567;DHT22;9930;49.240;8.548;2022-12-07T05:37:50;7.20;85.90
19567;DHT22;9930;49.240;8.548;2022-12-07T05:40:21;7.20;85.90
19567;DHT22;9930;49.240;8.548;2022-12-07T05:42:47;7.20;85.90
19567;DHT22;9930;49.240;8.548;2022-12-07T05:45:14;7.20;85.90
19567;DHT22;9930;49.240;8.548;2022-12-07T05:47:40;7.20;85.90
19567;DHT22;9930;49.240;8.548;2022-12-07T05:50:08;7.20;85.90
19567;DHT22;9930;49.240;8.548;2022-12-07T05:52:34;7.20;85.90
19567;DHT22;9930;49.240;8.548;2022-12-07T05:55:02;7.20;85.90
19567;DHT22;9930;49.240;8.548;2022-12-07T05:57:28;7.20;85.80
19567;DHT22;9930;49.240;8.548;2022-12-07T05:59:53;7.20;85.80
19567;DHT22;9930;49.240;8.548;2022-12-07T06:02:24;7.20;85.80
19567;DHT22;9930;49.240;8.548;2022-12-07T06:04:52;7.20;85.80
19567;DHT22;9930;49.240;8.548;2022-12-07T06:07:23;7.20;85.80
19567;DHT22;9930;49.240;8.548;2022-12-07T06:09:51;7.20;85.70
19567;DHT22;9930;49.240;8.548;2022-12-07T06:12:20;7.20;85.60
19567;DHT22;9930;49.240;8.548;2022-12-07T06:15:08;7.30;85.60
19567;DHT22;9930;49.240;8.548;2022-12-07T06:17:38;7.20;85.50
19567;DHT22;9930;49.240;8.548;2022-12-07T06:20:07;7.20;85.50
19567;DHT22;9930;49.240;8.548;2022-12-07T06:22:35;7.20;85.30
19567;DHT22;9930;49.240;8.548;2022-12-07T06:25:03;7.30;85.40
19567;DHT22;9930;49.240;8.548;2022-12-07T06:27:29;7.20;85.30
19567;DHT22;9930;49.240;8.548;2022-12-07T06:29:57;7.20;85.30
19567;DHT22;9930;49.240;8.548;2022-12-07T06:32:23;7.20;85.20
19567;DHT22;9930;49.240;8.548;2022-12-07T06:34:54;7.20;85.20
19567;DHT22;9930;49.240;8.548;2022-12-07T06:37:22;7.20;85.20
19567;DHT22;9930;49.240;8.548;2022-12-07T06:39:52;7.30;85.30
19567;DHT22;9930;49.240;8.548;2022-12-07T06:42:21;7.20;85.10
19567;DHT22;9930;49.240;8.548;2022-12-07T06:44:55;7.30;85.30
19567;DHT22;9930;49.240;8.548;2022-12-07T06:47:22;7.30;85.20
19567;DHT22;9930;49.240;8.548;2022-12-07T06:49:51;7.30;85.20
19567;DHT22;9930;49.240;8.548;2022-12-07T06:52:21;7.30;85.10
19567;DHT22;9930;49.240;8.548;2022-12-07T06:54:52;7.30;85.10
19567;DHT22;9930;49.240;8.548;2022-12-07T06:57:21;7.30;85.00
19567;DHT22;9930;49.240;8.548;2022-12-07T06:59:52;7.30;84.90
19567;DHT22;9930;49.240;8.548;2022-12-07T07:02:21;7.30;84.90
19567;DHT22;9930;49.240;8.548;2022-12-07T07:04:52;7.30;84.80
19567;DHT22;9930;49.240;8.548;2022-12-07T07:07:21;7.30;84.80
19567;DHT22;9930;49.240;8.548;2022-12-07T07:09:47;7.30;84.80
19567;DHT22;9930;49.240;8.548;2022-12-07T07:12:19;7.30;84.80
19567;DHT22;9930;49.240;8.548;2022-12-07T07:14:50;7.30;84.70
19567;DHT22;9930;49.240;8.548;2022-12-07T07:17:18;7.30;84.60
19567;DHT22;9930;49.240;8.548;2022-12-07T07:19:52;7.40;84.70
19567;DHT22;9930;49.240;8.548;2022-12-07T07:22:20;7.30;84.50
19567;DHT22;9930;49.240;8.548;2022-12-07T07:24:47;7.30;84.50
19567;DHT22;9930;49.240;8.548;2022-12-07T07:27:18;7.40;84.60
19567;DHT22;9930;49.240;8.548;2022-12-07T07:29:51;7.40;84.60
19567;DHT22;9930;49.240;8.548;2022-12-07T07:32:19;7.40;84.50
19567;DHT22;9930;49.240;8.548;2022-12-07T07:34:51;7.40;84.60
19567;DHT22;9930;49.240;8.548;2022-12-07T07:37:21;7.40;84.50
19567;DHT22;9930;49.240;8.548;2022-12-07T07:39:47;7.40;84.50
19567;DHT22;9930;49.240;8.548;2022-12-07T07:42:23;7.40;84.50
19567;DHT22;9930;49.240;8.548;2022-12-07T07:44:52;7.40;84.50
19567;DHT22;9930;49.240;8.548;2022-12-07T07:47:21;7.40;84.40
19567;DHT22;9930;49.240;8.548;2022-12-07T07:49:47;7.40;84.40
19567;DHT22;9930;49.240;8.548;2022-12-07T07:52:15;7.50;84.50
19567;DHT22;9930;49.240;8.548;2022-12-07T07:54:41;7.50;84.50
19567;DHT22;9930;49.240;8.548;2022-12-07T07:57:07;7.50;84.50
19567;DHT22;9930;49.240;8.548;2022-12-07T07:59:35;7.50;84.40
19567;DHT22;9930;49.240;8.548;2022-12-07T08:02:03;7.50;84.40
19567;DHT22;9930;49.240;8.548;2022-12-07T08:04:31;7.50;84.40
19567;DHT22;9930;49.240;8.548;2022-12-07T08:06:59;7.50;84.40
19567;DHT22;9930;49.240;8.548;2022-12-07T08:09:24;7.50;84.20
19567;DHT22;9930;49.240;8.548;2022-12-07T08:11:55;7.50;84.30
19567;DHT22;9930;49.240;8.548;2022-12-07T08:14:23;7.50;84.20
19567;DHT22;9930;49.240;8.548;2022-12-07T08:16:52;7.60;84.20
19567;DHT22;9930;49.240;8.548;2022-12-07T08:19:21;7.60;84.10
19567;DHT22;9930;49.240;8.548;2022-12-07T08:21:48;7.50;84.00
19567;DHT22;9930;49.240;8.548;2022-12-07T08:24:14;7.60;84.00
19567;DHT22;9930;49.240;8.548;2022-12-07T08:26:40;7.60;84.20
19567;DHT22;9930;49.240;8.548;2022-12-07T08:29:06;7.60;84.10
19567;DHT22;9930;49.240;8.548;2022-12-07T08:31:32;7.60;84.10
19567;DHT22;9930;49.240;8.548;2022-12-07T08:34:00;7.70;84.20
19567;DHT22;9930;49.240;8.548;2022-12-07T08:36:26;7.60;84.10
19567;DHT22;9930;49.240;8.548;2022-12-07T08:38:52;7.70;84.10
19567;DHT22;9930;49.240;8.548;2022-12-07T08:41:21;7.70;84.00
19567;DHT22;9930;49.240;8.548;2022-12-07T08:43:52;7.70;84.00
19567;DHT22;9930;49.240;8.548;2022-12-07T08:49:24;7.80;84.20
19567;DHT22;9930;49.240;8.548;2022-12-07T08:51:55;7.80;84.10
19567;DHT22;9930;49.240;8.548;2022-12-07T08:54:22;7.80;84.10
19567;DHT22;9930;49.240;8.548;2022-12-07T08:56:52;7.80;84.00
19567;DHT22;9930;49.240;8.548;2022-12-07T08:59:21;7.80;84.10
19567;DHT22;9930;49.240;8.548;2022-12-07T09:01:52;7.80;84.00
19567;DHT22;9930;49.240;8.548;2022-12-07T09:04:21;7.90;84.70
19567;DHT22;9930;49.240;8.548;2022-12-07T09:06:49;7.90;83.90
19567;DHT22;9930;49.240;8.548;2022-12-07T09:09:21;7.90;83.90
19567;DHT22;9930;49.240;8.548;2022-12-07T09:11:47;7.90;83.90
19567;DHT22;9930;49.240;8.548;2022-12-07T09:14:22;7.90;83.80
19567;DHT22;9930;49.240;8.548;2022-12-07T09:16:51;8.00;83.80
19567;DHT22;9930;49.240;8.548;2022-12-07T09:19:21;7.90;83.70
19567;DHT22;9930;49.240;8.548;2022-12-07T09:21:51;7.90;83.60
19567;DHT22;9930;49.240;8.548;2022-12-07T09:24:22;7.90;83.50
19567;DHT22;9930;49.240;8.548;2022-12-07T09:26:51;8.00;83.60
19567;DHT22;9930;49.240;8.548;2022-12-07T09:29:21;7.90;83.50
19567;DHT22;9930;49.240;8.548;2022-12-07T09:31:56;7.90;83.40
19567;DHT22;9930;49.240;8.548;2022-12-07T09:34:22;8.00;83.40
19567;DHT22;9930;49.240;8.548;2022-12-07T09:36:50;8.00;83.60
19567;DHT22;9930;49.240;8.548;2022-12-07T09:39:18;7.90;83.60
19567;DHT22;9930;49.240;8.548;2022-12-07T09:41:49;8.00;83.70
19567;DHT22;9930;49.240;8.548;2022-12-07T09:44:24;8.00;83.60
19567;DHT22;9930;49.240;8.548;2022-12-07T09:46:52;8.00;83.50
19567;DHT22;9930;49.240;8.548;2022-12-07T09:49:23;8.00;83.60
19567;DHT22;9930;49.240;8.548;2022-12-07T09:55:01;8.00;83.40
19567;DHT22;9930;49.240;8.548;2022-12-07T09:57:32;8.00;83.70
19567;DHT22;9930;49.240;8.548;2022-12-07T10:00:03;8.00;83.60
19567;DHT22;9930;49.240;8.548;2022-12-07T10:02:37;8.10;83.70
19567;DHT22;9930;49.240;8.548;2022-12-07T10:05:24;8.10;83.70
19567;DHT22;9930;49.240;8.548;2022-12-07T10:08:12;8.10;83.70
19567;DHT22;9930;49.240;8.548;2022-12-07T10:10:40;8.10;83.80
19567;DHT22;9930;49.240;8.548;2022-12-07T10:13:15;8.10;83.80
19567;DHT22;9930;49.240;8.548;2022-12-07T10:15:57;8.20;83.70
19567;DHT22;9930;49.240;8.548;2022-12-07T10:21:10;8.20;84.50
19567;DHT22;9930;49.240;8.548;2022-12-07T10:26:32;8.30;83.50
19567;DHT22;9930;49.240;8.548;2022-12-07T10:34:40;8.40;83.70
19567;DHT22;9930;49.240;8.548;2022-12-07T10:39:54;8.40;83.50
19567;DHT22;9930;49.240;8.548;2022-12-07T10:42:27;8.50;83.60
19567;DHT22;9930;49.240;8.548;2022-12-07T10:45:24;8.50;83.70
19567;DHT22;9930;49.240;8.548;2022-12-07T11:05:49;8.70;83.20
19567;DHT22;9930;49.240;8.548;2022-12-07T11:11:05;8.80;83.40
19567;DHT22;9930;49.240;8.548;2022-12-07T11:22:09;8.90;83.00
19567;DHT22;9930;49.240;8.548;2022-12-07T11:27:47;8.90;82.90
19567;DHT22;9930;49.240;8.548;2022-12-07T11:31:26;9.00;83.10
19567;DHT22;9930;49.240;8.548;2022-12-07T11:34:15;9.00;82.90
19567;DHT22;9930;49.240;8.548;2022-12-07T11:36:51;9.00;83.00
19567;DHT22;9930;49.240;8.548;2022-12-07T11:39:28;9.10;82.90
19567;DHT22;9930;49.240;8.548;2022-12-07T11:42:08;9.10;82.80
19567;DHT22;9930;49.240;8.548;2022-12-07T11:45:02;9.10;82.40
19567;DHT22;9930;49.240;8.548;2022-12-07T11:48:17;9.10;82.10
19567;DHT22;9930;49.240;8.548;2022-12-07T11:51:02;9.10;81.90
19567;DHT22;9930;49.240;8.548;2022-12-07T11:53:38;9.10;81.90
19567;DHT22;9930;49.240;8.548;2022-12-07T11:56:15;9.10;82.00
19567;DHT22;9930;49.240;8.548;2022-12-07T11:58:56;9.10;82.10
19567;DHT22;9930;49.240;8.548;2022-12-07T12:06:40;9.10;82.00
19567;DHT22;9930;49.240;8.548;2022-12-07T12:09:20;9.10;82.20
19567;DHT22;9930;49.240;8.548;2022-12-07T12:15:07;9.20;82.30
19567;DHT22;9930;49.240;8.548;2022-12-07T12:21:04;9.20;82.60
19567;DHT22;9930;49.240;8.548;2022-12-07T12:23:42;9.30;82.70
19567;DHT22;9930;49.240;8.548;2022-12-07T12:33:54;9.40;81.80
19567;DHT22;9930;49.240;8.548;2022-12-07T12:39:10;9.40;81.40
19567;DHT22;9930;49.240;8.548;2022-12-07T12:47:03;9.40;81.60
19567;DHT22;9930;49.240;8.548;2022-12-07T12:50:22;9.40;81.40
19567;DHT22;9930;49.240;8.548;2022-12-07T12:56:10;9.30;81.60
19567;DHT22;9930;49.240;8.548;2022-12-07T13:02:22;9.30;81.20
19567;DHT22;9930;49.240;8.548;2022-12-07T13:18:40;9.20;81.20
19567;DHT22;9930;49.240;8.548;2022-12-07T13:21:40;9.20;81.50
19567;DHT22;9930;49.240;8.548;2022-12-07T13:23:58;9.20;81.40
19567;DHT22;9930;49.240;8.548;2022-12-07T13:26:38;9.20;81.40
19567;DHT22;9930;49.240;8.548;2022-12-07T13:34:35;9.20;81.70
19567;DHT22;9930;49.240;8.548;2022-12-07T13:39:49;9.20;81.50
19567;DHT22;9930;49.240;8.548;2022-12-07T13:42:30;9.20;81.30
19567;DHT22;9930;49.240;8.548;2022-12-07T13:44:59;9.20;81.20
19567;DHT22;9930;49.240;8.548;2022-12-07T13:47:36;9.30;81.50
19567;DHT22;9930;49.240;8.548;2022-12-07T13:50:28;9.30;81.40
19567;DHT22;9930;49.240;8.548;2022-12-07T13:52:58;9.20;80.80
19567;DHT22;9930;49.240;8.548;2022-12-07T13:55:27;9.30;81.30
19567;DHT22;9930;49.240;8.548;2022-12-07T13:57:55;9.20;81.10
19567;DHT22;9930;49.240;8.548;2022-12-07T14:00:24;9.20;81.10
19567;DHT22;9930;49.240;8.548;2022-12-07T14:03:29;9.20;81.10
19567;DHT22;9930;49.240;8.548;2022-12-07T14:06:26;9.20;80.60
19567;DHT22;9930;49.240;8.548;2022-12-07T14:09:17;9.20;80.70
19567;DHT22;9930;49.240;8.548;2022-12-07T14:11:54;9.20;80.70
19567;DHT22;9930;49.240;8.548;2022-12-07T14:14:30;9.20;81.10
19567;DHT22;9930;49.240;8.548;2022-12-07T14:22:38;9.10;80.90
19567;DHT22;9930;49.240;8.548;2022-12-07T14:27:39;9.10;80.90
19567;DHT22;9930;49.240;8.548;2022-12-07T14:30:20;9.10;80.90
19567;DHT22;9930;49.240;8.548;2022-12-07T14:33:00;9.10;80.90
19567;DHT22;9930;49.240;8.548;2022-12-07T14:35:31;9.10;80.80
19567;DHT22;9930;49.240;8.548;2022-12-07T14:37:57;9.10;81.00
19567;DHT22;9930;49.240;8.548;2022-12-07T14:40:26;9.10;81.00
19567;DHT22;9930;49.240;8.548;2022-12-07T14:43:14;9.10;81.00
19567;DHT22;9930;49.240;8.548;2022-12-07T14:45:42;9.00;80.80
19567;DHT22;9930;49.240;8.548;2022-12-07T14:48:11;9.00;81.10
19567;DHT22;9930;49.240;8.548;2022-12-07T14:50:44;9.00;80.90
19567;DHT22;9930;49.240;8.548;2022-12-07T14:53:18;9.00;80.90
19567;DHT22;9930;49.240;8.548;2022-12-07T14:55:52;9.00;80.90
19567;DHT22;9930;49.240;8.548;2022-12-07T14:58:21;9.00;81.00
19567;DHT22;9930;49.240;8.548;2022-12-07T15:00:52;8.90;80.90
19567;DHT22;9930;49.240;8.548;2022-12-07T15:03:22;9.00;80.90
19567;DHT22;9930;49.240;8.548;2022-12-07T15:05:51;8.90;80.90
19567;DHT22;9930;49.240;8.548;2022-12-07T15:08:19;8.90;80.80
19567;DHT22;9930;49.240;8.548;2022-12-07T15:10:47;8.90;80.90
19567;DHT22;9930;49.240;8.548;2022-12-07T15:13:22;8.90;80.90
19567;DHT22;9930;49.240;8.548;2022-12-07T15:16:26;8.80;80.80
19567;DHT22;9930;49.240;8.548;2022-12-07T15:18:52;8.80;80.90
19567;DHT22;9930;49.240;8.548;2022-12-07T15:21:20;8.80;81.00
19567;DHT22;9930;49.240;8.548;2022-12-07T15:23:46;8.80;81.00
19567;DHT22;9930;49.240;8.548;2022-12-07T15:26:15;8.80;81.00
19567;DHT22;9930;49.240;8.548;2022-12-07T15:28:44;8.80;81.10
19567;DHT22;9930;49.240;8.548;2022-12-07T15:31:21;8.80;81.10
19567;DHT22;9930;49.240;8.548;2022-12-07T15:33:52;8.70;81.00
19567;DHT22;9930;49.240;8.548;2022-12-07T15:36:24;8.70;81.00
19567;DHT22;9930;49.240;8.548;2022-12-07T15:38:52;8.70;81.00
19567;DHT22;9930;49.240;8.548;2022-12-07T15:41:22;8.70;81.00
19567;DHT22;9930;49.240;8.548;2022-12-07T15:43:52;8.70;80.90
19567;DHT22;9930;49.240;8.548;2022-12-07T15:46:39;8.70;80.80
19567;DHT22;9930;49.240;8.548;2022-12-07T15:49:13;8.70;80.90
19567;DHT22;9930;49.240;8.548;2022-12-07T15:51:41;8.70;80.80
19567;DHT22;9930;49.240;8.548;2022-12-07T15:54:28;8.70;80.80
19567;DHT22;9930;49.240;8.548;2022-12-07T15:56:55;8.60;80.50
19567;DHT22;9930;49.240;8.548;2022-12-07T15:59:26;8.60;80.80
19567;DHT22;9930;49.240;8.548;2022-12-07T16:01:53;8.60;80.60
19567;DHT22;9930;49.240;8.548;2022-12-07T16:04:22;8.60;80.60
19567;DHT22;9930;49.240;8.548;2022-12-07T16:06:49;8.50;80.60
19567;DHT22;9930;49.240;8.548;2022-12-07T16:09:22;8.50;80.60
19567;DHT22;9930;49.240;8.548;2022-12-07T16:11:52;8.50;80.50
19567;DHT22;9930;49.240;8.548;2022-12-07T16:14:22;8.50;80.60
19567;DHT22;9930;49.240;8.548;2022-12-07T16:16:50;8.40;80.60
19567;DHT22;9930;49.240;8.548;2022-12-07T16:19:19;8.40;80.60
19567;DHT22;9930;49.240;8.548;2022-12-07T16:21:47;8.40;80.70
19567;DHT22;9930;49.240;8.548;2022-12-07T16:24:17;8.40;80.70
19567;DHT22;9930;49.240;8.548;2022-12-07T16:26:47;8.40;80.70
19567;DHT22;9930;49.240;8.548;2022-12-07T16:29:20;8.30;80.70
19567;DHT22;9930;49.240;8.548;2022-12-07T16:31:51;8.30;80.80
19567;DHT22;9930;49.240;8.548;2022-12-07T16:34:21;8.30;80.80
19567;DHT22;9930;49.240;8.548;2022-12-07T16:36:47;8.30;80.90
19567;DHT22;9930;49.240;8.548;2022-12-07T16:39:22;8.20;80.90
19567;DHT22;9930;49.240;8.548;2022-12-07T16:41:50;8.30;80.90
19567;DHT22;9930;49.240;8.548;2022-12-07T16:44:22;8.20;80.80
19567;DHT22;9930;49.240;8.548;2022-12-07T16:46:48;8.20;80.80
19567;DHT22;9930;49.240;8.548;2022-12-07T16:49:16;8.30;81.00
19567;DHT22;9930;49.240;8.548;2022-12-07T16:51:42;8.20;80.90
19567;DHT22;9930;49.240;8.548;2022-12-07T16:54:12;8.20;80.90
19567;DHT22;9930;49.240;8.548;2022-12-07T16:56:40;8.20;81.00
19567;DHT22;9930;49.240;8.548;2022-12-07T16:59:07;8.20;81.00
19567;DHT22;9930;49.240;8.548;2022-12-07T17:01:33;8.20;81.00
19567;DHT22;9930;49.240;8.548;2022-12-07T17:04:02;8.20;81.00
19567;DHT22;9930;49.240;8.548;2022-12-07T17:06:31;8.20;80.90
19567;DHT22;9930;49.240;8.548;2022-12-07T17:08:57;8.20;81.00
19567;DHT22;9930;49.240;8.548;2022-12-07T17:11:26;8.10;80.90
19567;DHT22;9930;49.240;8.548;2022-12-07T17:13:53;8.20;81.00
19567;DHT22;9930;49.240;8.548;2022-12-07T17:16:55;8.10;80.90
19567;DHT22;9930;49.240;8.548;2022-12-07T17:19:23;8.20;81.10
19567;DHT22;9930;49.240;8.548;2022-12-07T17:21:55;8.10;80.90
19567;DHT22;9930;49.240;8.548;2022-12-07T17:24:22;8.10;80.90
19567;DHT22;9930;49.240;8.548;2022-12-07T17:26:48;8.10;81.00
19567;DHT22;9930;49.240;8.548;2022-12-07T17:29:18;8.10;80.90
19567;DHT22;9930;49.240;8.548;2022-12-07T17:31:49;8.10;81.00
19567;DHT22;9930;49.240;8.548;2022-12-07T17:34:18;8.10;81.00
19567;DHT22;9930;49.240;8.548;2022-12-07T17:36:52;8.10;81.00
19567;DHT22;9930;49.240;8.548;2022-12-07T17:39:24;8.00;81.00
19567;DHT22;9930;49.240;8.548;2022-12-07T17:41:52;8.10;81.00
19567;DHT22;9930;49.240;8.548;2022-12-07T17:44:36;8.10;81.10
19567;DHT22;9930;49.240;8.548;2022-12-07T17:47:01;8.10;81.10
19567;DHT22;9930;49.240;8.548;2022-12-07T17:49:30;8.00;81.00
19567;DHT22;9930;49.240;8.548;2022-12-07T17:51:56;8.00;81.00
19567;DHT22;9930;49.240;8.548;2022-12-07T17:54:41;8.00;81.00
19567;DHT22;9930;49.240;8.548;2022-12-07T17:57:10;8.00;81.10
19567;DHT22;9930;49.240;8.548;2022-12-07T17:59:36;8.00;81.00
19567;DHT22;9930;49.240;8.548;2022-12-07T18:02:04;8.00;81.10
19567;DHT22;9930;49.240;8.548;2022-12-07T18:04:30;8.00;81.00
19567;DHT22;9930;49.240;8.548;2022-12-07T18:06:56;8.00;81.00
19567;DHT22;9930;49.240;8.548;2022-12-07T18:09:24;8.00;81.10
19567;DHT22;9930;49.240;8.548;2022-12-07T18:11:52;8.00;81.10
19567;DHT22;9930;49.240;8.548;2022-12-07T18:14:21;8.00;81.00
19567;DHT22;9930;49.240;8.548;2022-12-07T18:16:47;8.00;81.00
19567;DHT22;9930;49.240;8.548;2022-12-07T18:19:22;8.00;81.00
19567;DHT22;9930;49.240;8.548;2022-12-07T18:21:48;7.90;81.10
19567;DHT22;9930;49.240;8.548;2022-12-07T18:24:18;8.00;81.00
19567;DHT22;9930;49.240;8.548;2022-12-07T18:26:47;7.90;81.00
19567;DHT22;9930;49.240;8.548;2022-12-07T18:29:19;7.90;81.00
19567;DHT22;9930;49.240;8.548;2022-12-07T18:31:48;8.00;81.10
19567;DHT22;9930;49.240;8.548;2022-12-07T18:34:19;8.00;81.00
19567;DHT22;9930;49.240;8.548;2022-12-07T18:36:52;8.00;81.10
19567;DHT22;9930;49.240;8.548;2022-12-07T18:39:22;7.90;81.00
19567;DHT22;9930;49.240;8.548;2022-12-07T18:41:57;7.90;81.00
19567;DHT22;9930;49.240;8.548;2022-12-07T18:44:24;7.90;80.90
19567;DHT22;9930;49.240;8.548;2022-12-07T18:46:52;7.90;80.90
19567;DHT22;9930;49.240;8.548;2022-12-07T18:49:22;7.80;80.80
19567;DHT22;9930;49.240;8.548;2022-12-07T18:51:48;7.90;80.80